sensor_id;sensor_type;location;lat;lon;timestamp;P1;durP1;ratioP1;P2;durP2;ratioP2
9888;SDS011;4983;42.112;24.738;2023-04-26T00:01:55;1.87;;;1.30;;
9888;SDS011;4983;42.112;24.738;2023-04-26T00:04:22;1.40;;;1.13;;
9888;SDS011;4983;42.112;24.738;2023-04-26T00:06:49;1.20;;;1.10;;
9888;SDS011;4983;42.112;24.738;2023-04-26T00:09:16;1.30;;;1.20;;
9888;SDS011;4983;42.112;24.738;2023-04-26T00:11:43;1.30;;;1.20;;
9888;SDS011;4983;42.112;24.738;2023-04-26T00:14:12;1.47;;;1.30;;
9888;SDS011;4983;42.112;24.738;2023-04-26T00:16:39;1.30;;;1.20;;
9888;SDS011;4983;42.112;24.738;2023-04-26T00:19:06;1.80;;;1.20;;
9888;SDS011;4983;42.112;24.738;2023-04-26T00:21:35;1.30;;;1.20;;
9888;SDS011;4983;42.112;24.738;2023-04-26T00:24:02;1.13;;;1.00;;
9888;SDS011;4983;42.112;24.738;2023-04-26T00:26:29;0.80;;;0.80;;
9888;SDS011;4983;42.112;24.738;2023-04-26T00:28:56;1.00;;;1.00;;
9888;SDS011;4983;42.112;24.738;2023-04-26T00:31:24;1.10;;;1.00;;
9888;SDS011;4983;42.112;24.738;2023-04-26T00:33:51;1.10;;;1.00;;
9888;SDS011;4983;42.112;24.738;2023-04-26T00:36:18;1.83;;;1.10;;
9888;SDS011;4983;42.112;24.738;2023-04-26T00:38:45;0.80;;;0.80;;
9888;SDS011;4983;42.112;24.738;2023-04-26T00:41:11;1.87;;;1.30;;
9888;SDS011;4983;42.112;24.738;2023-04-26T00:43:38;0.87;;;0.87;;
9888;SDS011;4983;42.112;24.738;2023-04-26T00:46:05;1.10;;;1.00;;
9888;SDS011;4983;42.112;24.738;2023-04-26T00:48:33;2.40;;;1.07;;
9888;SDS011;4983;42.112;24.738;2023-04-26T00:51:01;1.07;;;0.90;;
9888;SDS011;4983;42.112;24.738;2023-04-26T00:53:29;0.90;;;0.90;;
9888;SDS011;4983;42.112;24.738;2023-04-26T00:55:56;0.93;;;0.90;;
9888;SDS011;4983;42.112;24.738;2023-04-26T00:58:23;0.90;;;0.70;;
9888;SDS011;4983;42.112;24.738;2023-04-26T01:00:50;0.80;;;0.80;;
9888;SDS011;4983;42.112;24.738;2023-04-26T01:03:17;1.00;;;0.90;;
9888;SDS011;4983;42.112;24.738;2023-04-26T01:05:45;0.80;;;0.80;;
9888;SDS011;4983;42.112;24.738;2023-04-26T01:08:12;0.80;;;0.73;;
9888;SDS011;4983;42.112;24.738;2023-04-26T01:10:42;0.67;;;0.67;;
9888;SDS011;4983;42.112;24.738;2023-04-26T01:13:09;0.70;;;0.70;;
9888;SDS011;4983;42.112;24.738;2023-04-26T01:15:36;1.00;;;0.90;;
9888;SDS011;4983;42.112;24.738;2023-04-26T01:18:03;0.60;;;0.60;;
9888;SDS011;4983;42.112;24.738;2023-04-26T01:20:30;0.60;;;0.60;;
9888;SDS011;4983;42.112;24.738;2023-04-26T01:22:58;0.70;;;0.70;;
9888;SDS011;4983;42.112;24.738;2023-04-26T01:25:26;0.60;;;0.60;;
9888;SDS011;4983;42.112;24.738;2023-04-26T01:27:53;0.67;;;0.67;;
9888;SDS011;4983;42.112;24.738;2023-04-26T01:30:19;0.90;;;0.90;;
9888;SDS011;4983;42.112;24.738;2023-04-26T01:32:49;0.73;;;0.73;;
9888;SDS011;4983;42.112;24.738;2023-04-26T01:35:15;0.67;;;0.67;;
9888;SDS011;4983;42.112;24.738;2023-04-26T01:37:43;1.00;;;0.77;;
9888;SDS011;4983;42.112;24.738;2023-04-26T01:40:12;0.70;;;0.70;;
9888;SDS011;4983;42.112;24.738;2023-04-26T01:42:39;0.90;;;0.80;;
9888;SDS011;4983;42.112;24.738;2023-04-26T01:45:06;1.77;;;0.70;;
9888;SDS011;4983;42.112;24.738;2023-04-26T01:47:33;0.80;;;0.80;;
9888;SDS011;4983;42.112;24.738;2023-04-26T01:50:00;0.63;;;0.63;;
9888;SDS011;4983;42.112;24.738;2023-04-26T01:52:27;0.70;;;0.70;;
9888;SDS011;4983;42.112;24.738;2023-04-26T01:54:53;0.90;;;0.90;;
9888;SDS011;4983;42.112;24.738;2023-04-26T01:57:21;0.90;;;0.70;;
9888;SDS011;4983;42.112;24.738;2023-04-26T01:59:48;1.20;;;0.63;;
9888;SDS011;4983;42.112;24.738;2023-04-26T02:02:15;0.70;;;0.70;;
9888;SDS011;4983;42.112;24.738;2023-04-26T02:04:42;0.90;;;0.70;;
9888;SDS011;4983;42.112;24.738;2023-04-26T02:07:09;0.60;;;0.60;;
9888;SDS011;4983;42.112;24.738;2023-04-26T02:09:36;0.77;;;0.77;;
9888;SDS011;4983;42.112;24.738;2023-04-26T02:12:03;0.70;;;0.70;;
9888;SDS011;4983;42.112;24.738;2023-04-26T02:14:31;1.23;;;0.90;;
9888;SDS011;4983;42.112;24.738;2023-04-26T02:16:58;1.47;;;0.70;;
9888;SDS011;4983;42.112;24.738;2023-04-26T02:19:25;0.70;;;0.70;;
9888;SDS011;4983;42.112;24.738;2023-04-26T02:21:53;0.87;;;0.83;;
9888;SDS011;4983;42.112;24.738;2023-04-26T02:24:19;0.80;;;0.70;;
9888;SDS011;4983;42.112;24.738;2023-04-26T02:26:47;0.90;;;0.90;;
9888;SDS011;4983;42.112;24.738;2023-04-26T02:29:14;0.70;;;0.70;;
9888;SDS011;4983;42.112;24.738;2023-04-26T02:31:42;0.80;;;0.80;;
9888;SDS011;4983;42.112;24.738;2023-04-26T02:34:10;0.93;;;0.80;;
9888;SDS011;4983;42.112;24.738;2023-04-26T02:36:38;0.60;;;0.60;;
9888;SDS011;4983;42.112;24.738;2023-04-26T02:39:05;0.87;;;0.87;;
9888;SDS011;4983;42.112;24.738;2023-04-26T02:41:31;0.97;;;0.87;;
9888;SDS011;4983;42.112;24.738;2023-04-26T02:43:58;0.80;;;0.80;;
9888;SDS011;4983;42.112;24.738;2023-04-26T02:46:25;0.80;;;0.80;;
9888;SDS011;4983;42.112;24.738;2023-04-26T02:48:53;0.80;;;0.80;;
9888;SDS011;4983;42.112;24.738;2023-04-26T02:51:21;0.80;;;0.80;;
9888;SDS011;4983;42.112;24.738;2023-04-26T02:53:47;0.90;;;0.90;;
9888;SDS011;4983;42.112;24.738;2023-04-26T02:56:14;1.00;;;0.90;;
9888;SDS011;4983;42.112;24.738;2023-04-26T02:58:41;0.90;;;0.90;;
9888;SDS011;4983;42.112;24.738;2023-04-26T03:01:07;1.07;;;0.97;;
9888;SDS011;4983;42.112;24.738;2023-04-26T03:03:34;1.30;;;1.00;;
9888;SDS011;4983;42.112;24.738;2023-04-26T03:06:02;1.13;;;1.03;;
9888;SDS011;4983;42.112;24.738;2023-04-26T03:08:29;1.50;;;1.20;;
9888;SDS011;4983;42.112;24.738;2023-04-26T03:10:56;1.33;;;1.23;;
9888;SDS011;4983;42.112;24.738;2023-04-26T03:13:23;1.00;;;0.90;;
9888;SDS011;4983;42.112;24.738;2023-04-26T03:15:49;1.60;;;1.50;;
9888;SDS011;4983;42.112;24.738;2023-04-26T03:18:17;1.67;;;1.40;;
9888;SDS011;4983;42.112;24.738;2023-04-26T03:20:44;2.13;;;1.43;;
9888;SDS011;4983;42.112;24.738;2023-04-26T03:23:12;1.43;;;1.33;;
9888;SDS011;4983;42.112;24.738;2023-04-26T03:25:39;1.50;;;1.37;;
9888;SDS011;4983;42.112;24.738;2023-04-26T03:28:05;1.40;;;1.30;;
9888;SDS011;4983;42.112;24.738;2023-04-26T03:30:32;1.37;;;1.27;;
9888;SDS011;4983;42.112;24.738;2023-04-26T03:32:59;1.57;;;1.27;;
9888;SDS011;4983;42.112;24.738;2023-04-26T03:35:25;1.43;;;1.30;;
9888;SDS011;4983;42.112;24.738;2023-04-26T03:37:52;1.27;;;1.17;;
9888;SDS011;4983;42.112;24.738;2023-04-26T03:40:20;1.30;;;1.10;;
9888;SDS011;4983;42.112;24.738;2023-04-26T03:42:47;4.50;;;1.20;;
9888;SDS011;4983;42.112;24.738;2023-04-26T03:45:14;1.30;;;1.20;;
9888;SDS011;4983;42.112;24.738;2023-04-26T03:47:41;2.20;;;1.20;;
9888;SDS011;4983;42.112;24.738;2023-04-26T03:50:08;1.20;;;1.10;;
9888;SDS011;4983;42.112;24.738;2023-04-26T03:52:35;2.13;;;1.10;;
9888;SDS011;4983;42.112;24.738;2023-04-26T03:55:02;1.20;;;1.07;;
9888;SDS011;4983;42.112;24.738;2023-04-26T03:57:30;1.27;;;0.97;;
9888;SDS011;4983;42.112;24.738;2023-04-26T03:59:56;1.17;;;1.07;;
9888;SDS011;4983;42.112;24.738;2023-04-26T04:02:23;1.47;;;1.23;;
9888;SDS011;4983;42.112;24.738;2023-04-26T04:04:50;1.17;;;1.00;;
9888;SDS011;4983;42.112;24.738;2023-04-26T04:07:18;1.47;;;1.20;;
9888;SDS011;4983;42.112;24.738;2023-04-26T04:09:46;1.70;;;0.97;;
9888;SDS011;4983;42.112;24.738;2023-04-26T04:12:12;2.50;;;1.20;;
9888;SDS011;4983;42.112;24.738;2023-04-26T04:14:41;1.20;;;1.10;;
9888;SDS011;4983;42.112;24.738;2023-04-26T04:17:08;1.53;;;1.10;;
9888;SDS011;4983;42.112;24.738;2023-04-26T04:19:35;1.23;;;1.10;;
9888;SDS011;4983;42.112;24.738;2023-04-26T04:22:02;1.30;;;1.20;;
9888;SDS011;4983;42.112;24.738;2023-04-26T04:24:28;1.47;;;1.10;;
9888;SDS011;4983;42.112;24.738;2023-04-26T04:26:56;1.80;;;1.30;;
9888;SDS011;4983;42.112;24.738;2023-04-26T04:29:23;3.10;;;1.90;;
9888;SDS011;4983;42.112;24.738;2023-04-26T04:31:53;2.50;;;2.20;;
9888;SDS011;4983;42.112;24.738;2023-04-26T04:34:20;2.33;;;1.90;;
9888;SDS011;4983;42.112;24.738;2023-04-26T04:36:48;1.60;;;1.43;;
9888;SDS011;4983;42.112;24.738;2023-04-26T04:39:14;2.00;;;1.80;;
9888;SDS011;4983;42.112;24.738;2023-04-26T04:41:41;2.07;;;1.80;;
9888;SDS011;4983;42.112;24.738;2023-04-26T04:44:12;1.50;;;1.40;;
9888;SDS011;4983;42.112;24.738;2023-04-26T04:46:39;2.00;;;1.60;;
9888;SDS011;4983;42.112;24.738;2023-04-26T04:49:08;2.00;;;1.70;;
9888;SDS011;4983;42.112;24.738;2023-04-26T04:51:35;1.60;;;1.20;;
9888;SDS011;4983;42.112;24.738;2023-04-26T04:54:07;2.47;;;1.63;;
9888;SDS011;4983;42.112;24.738;2023-04-26T04:56:34;2.00;;;1.70;;
9888;SDS011;4983;42.112;24.738;2023-04-26T04:59:01;1.87;;;1.50;;
9888;SDS011;4983;42.112;24.738;2023-04-26T05:01:29;1.80;;;1.43;;
9888;SDS011;4983;42.112;24.738;2023-04-26T05:03:56;1.77;;;1.40;;
9888;SDS011;4983;42.112;24.738;2023-04-26T05:06:24;1.63;;;1.40;;
9888;SDS011;4983;42.112;24.738;2023-04-26T05:08:51;2.60;;;1.73;;
9888;SDS011;4983;42.112;24.738;2023-04-26T05:11:18;1.40;;;1.30;;
9888;SDS011;4983;42.112;24.738;2023-04-26T05:13:45;1.20;;;1.10;;
9888;SDS011;4983;42.112;24.738;2023-04-26T05:16:12;1.70;;;1.40;;
9888;SDS011;4983;42.112;24.738;2023-04-26T05:18:38;1.53;;;1.30;;
9888;SDS011;4983;42.112;24.738;2023-04-26T05:21:05;2.03;;;1.33;;
9888;SDS011;4983;42.112;24.738;2023-04-26T05:23:34;1.33;;;1.23;;
9888;SDS011;4983;42.112;24.738;2023-04-26T05:26:00;1.50;;;1.27;;
9888;SDS011;4983;42.112;24.738;2023-04-26T05:28:30;1.90;;;1.37;;
9888;SDS011;4983;42.112;24.738;2023-04-26T05:30:56;1.77;;;1.50;;
9888;SDS011;4983;42.112;24.738;2023-04-26T05:33:23;1.90;;;1.17;;
9888;SDS011;4983;42.112;24.738;2023-04-26T05:35:50;2.93;;;1.43;;
9888;SDS011;4983;42.112;24.738;2023-04-26T05:38:18;1.90;;;1.50;;
9888;SDS011;4983;42.112;24.738;2023-04-26T05:40:46;1.50;;;1.40;;
9888;SDS011;4983;42.112;24.738;2023-04-26T05:43:13;1.43;;;1.33;;
9888;SDS011;4983;42.112;24.738;2023-04-26T05:45:39;1.60;;;1.23;;
9888;SDS011;4983;42.112;24.738;2023-04-26T05:48:07;1.67;;;1.47;;
9888;SDS011;4983;42.112;24.738;2023-04-26T05:50:34;1.60;;;1.40;;
9888;SDS011;4983;42.112;24.738;2023-04-26T05:53:00;2.90;;;1.57;;
9888;SDS011;4983;42.112;24.738;2023-04-26T05:55:27;1.97;;;1.30;;
9888;SDS011;4983;42.112;24.738;2023-04-26T05:57:57;2.40;;;1.40;;
9888;SDS011;4983;42.112;24.738;2023-04-26T06:00:24;6.30;;;1.20;;
9888;SDS011;4983;42.112;24.738;2023-04-26T06:02:51;1.20;;;1.10;;
9888;SDS011;4983;42.112;24.738;2023-04-26T06:05:18;1.73;;;0.90;;
9888;SDS011;4983;42.112;24.738;2023-04-26T06:07:45;3.10;;;1.50;;
9888;SDS011;4983;42.112;24.738;2023-04-26T06:10:11;1.20;;;1.10;;
9888;SDS011;4983;42.112;24.738;2023-04-26T06:12:39;3.23;;;1.50;;
9888;SDS011;4983;42.112;24.738;2023-04-26T06:15:07;1.30;;;1.20;;
9888;SDS011;4983;42.112;24.738;2023-04-26T06:17:34;2.83;;;1.40;;
9888;SDS011;4983;42.112;24.738;2023-04-26T06:20:01;1.37;;;1.27;;
9888;SDS011;4983;42.112;24.738;2023-04-26T06:22:29;2.20;;;1.50;;
9888;SDS011;4983;42.112;24.738;2023-04-26T06:24:56;2.70;;;1.60;;
9888;SDS011;4983;42.112;24.738;2023-04-26T06:27:22;1.60;;;1.50;;
9888;SDS011;4983;42.112;24.738;2023-04-26T06:29:49;2.47;;;1.70;;
9888;SDS011;4983;42.112;24.738;2023-04-26T06:32:18;1.43;;;1.33;;
9888;SDS011;4983;42.112;24.738;2023-04-26T06:34:44;3.27;;;1.57;;
9888;SDS011;4983;42.112;24.738;2023-04-26T06:37:11;1.43;;;1.33;;
9888;SDS011;4983;42.112;24.738;2023-04-26T06:39:39;1.80;;;1.50;;
9888;SDS011;4983;42.112;24.738;2023-04-26T06:42:05;1.40;;;1.30;;
9888;SDS011;4983;42.112;24.738;2023-04-26T06:44:32;1.93;;;1.50;;
9888;SDS011;4983;42.112;24.738;2023-04-26T06:46:59;5.90;;;1.70;;
9888;SDS011;4983;42.112;24.738;2023-04-26T06:49:27;5.67;;;1.40;;
9888;SDS011;4983;42.112;24.738;2023-04-26T06:51:53;1.67;;;1.43;;
9888;SDS011;4983;42.112;24.738;2023-04-26T06:54:20;1.87;;;1.60;;
9888;SDS011;4983;42.112;24.738;2023-04-26T06:56:47;1.50;;;1.30;;
9888;SDS011;4983;42.112;24.738;2023-04-26T06:59:13;2.20;;;1.50;;
9888;SDS011;4983;42.112;24.738;2023-04-26T07:01:40;1.90;;;1.70;;
9888;SDS011;4983;42.112;24.738;2023-04-26T07:04:08;2.03;;;1.60;;
9888;SDS011;4983;42.112;24.738;2023-04-26T07:06:37;3.37;;;1.90;;
9888;SDS011;4983;42.112;24.738;2023-04-26T07:09:04;1.90;;;1.70;;
9888;SDS011;4983;42.112;24.738;2023-04-26T07:11:32;1.57;;;1.37;;
9888;SDS011;4983;42.112;24.738;2023-04-26T07:13:59;3.57;;;1.77;;
9888;SDS011;4983;42.112;24.738;2023-04-26T07:16:26;2.33;;;1.80;;
9888;SDS011;4983;42.112;24.738;2023-04-26T07:18:54;2.90;;;1.67;;
9888;SDS011;4983;42.112;24.738;2023-04-26T07:21:23;2.77;;;1.93;;
9888;SDS011;4983;42.112;24.738;2023-04-26T07:23:53;1.93;;;1.80;;
9888;SDS011;4983;42.112;24.738;2023-04-26T07:26:20;2.63;;;1.83;;
9888;SDS011;4983;42.112;24.738;2023-04-26T07:28:47;2.10;;;1.90;;
9888;SDS011;4983;42.112;24.738;2023-04-26T07:31:16;1.97;;;1.77;;
9888;SDS011;4983;42.112;24.738;2023-04-26T07:33:44;2.10;;;1.90;;
9888;SDS011;4983;42.112;24.738;2023-04-26T07:36:17;1.97;;;1.77;;
9888;SDS011;4983;42.112;24.738;2023-04-26T07:38:44;1.80;;;1.70;;
9888;SDS011;4983;42.112;24.738;2023-04-26T07:41:12;4.67;;;1.73;;
9888;SDS011;4983;42.112;24.738;2023-04-26T07:43:40;8.27;;;2.50;;
9888;SDS011;4983;42.112;24.738;2023-04-26T07:46:07;2.63;;;1.80;;
9888;SDS011;4983;42.112;24.738;2023-04-26T07:48:33;2.27;;;1.67;;
9888;SDS011;4983;42.112;24.738;2023-04-26T07:51:05;2.23;;;1.63;;
9888;SDS011;4983;42.112;24.738;2023-04-26T07:53:33;2.53;;;2.20;;
9888;SDS011;4983;42.112;24.738;2023-04-26T07:56:02;2.73;;;1.70;;
9888;SDS011;4983;42.112;24.738;2023-04-26T07:58:31;1.90;;;1.77;;
9888;SDS011;4983;42.112;24.738;2023-04-26T08:00:58;1.53;;;1.43;;
9888;SDS011;4983;42.112;24.738;2023-04-26T08:03:25;2.50;;;1.60;;
9888;SDS011;4983;42.112;24.738;2023-04-26T08:05:52;5.77;;;1.80;;
9888;SDS011;4983;42.112;24.738;2023-04-26T08:08:19;9.13;;;3.40;;
9888;SDS011;4983;42.112;24.738;2023-04-26T08:10:46;2.00;;;1.80;;
9888;SDS011;4983;42.112;24.738;2023-04-26T08:13:13;3.70;;;2.30;;
9888;SDS011;4983;42.112;24.738;2023-04-26T08:15:41;2.37;;;1.97;;
9888;SDS011;4983;42.112;24.738;2023-04-26T08:18:08;2.80;;;2.13;;
9888;SDS011;4983;42.112;24.738;2023-04-26T08:20:35;2.60;;;1.93;;
9888;SDS011;4983;42.112;24.738;2023-04-26T08:23:02;4.37;;;2.10;;
9888;SDS011;4983;42.112;24.738;2023-04-26T08:25:29;2.20;;;2.00;;
9888;SDS011;4983;42.112;24.738;2023-04-26T08:27:55;2.70;;;2.20;;
9888;SDS011;4983;42.112;24.738;2023-04-26T08:30:22;2.20;;;1.90;;
9888;SDS011;4983;42.112;24.738;2023-04-26T08:32:50;3.30;;;2.13;;
9888;SDS011;4983;42.112;24.738;2023-04-26T08:35:17;2.90;;;1.93;;
9888;SDS011;4983;42.112;24.738;2023-04-26T08:37:43;2.50;;;2.07;;
9888;SDS011;4983;42.112;24.738;2023-04-26T08:40:10;2.50;;;2.10;;
9888;SDS011;4983;42.112;24.738;2023-04-26T08:42:39;3.47;;;2.10;;
9888;SDS011;4983;42.112;24.738;2023-04-26T08:45:06;2.80;;;2.20;;
9888;SDS011;4983;42.112;24.738;2023-04-26T08:47:36;2.87;;;2.23;;
9888;SDS011;4983;42.112;24.738;2023-04-26T08:50:05;3.53;;;2.50;;
9888;SDS011;4983;42.112;24.738;2023-04-26T08:52:33;4.67;;;2.20;;
9888;SDS011;4983;42.112;24.738;2023-04-26T08:55:00;2.40;;;2.20;;
9888;SDS011;4983;42.112;24.738;2023-04-26T08:57:28;2.57;;;2.17;;
9888;SDS011;4983;42.112;24.738;2023-04-26T08:59:56;3.50;;;2.10;;
9888;SDS011;4983;42.112;24.738;2023-04-26T09:02:23;2.27;;;2.07;;
9888;SDS011;4983;42.112;24.738;2023-04-26T09:04:50;2.20;;;2.00;;
9888;SDS011;4983;42.112;24.738;2023-04-26T09:07:19;3.60;;;2.10;;
9888;SDS011;4983;42.112;24.738;2023-04-26T09:09:47;2.10;;;1.90;;
9888;SDS011;4983;42.112;24.738;2023-04-26T09:12:14;5.63;;;2.40;;
9888;SDS011;4983;42.112;24.738;2023-04-26T09:14:43;2.37;;;2.17;;
9888;SDS011;4983;42.112;24.738;2023-04-26T09:17:26;2.87;;;2.10;;
9888;SDS011;4983;42.112;24.738;2023-04-26T09:19:53;2.37;;;1.90;;
9888;SDS011;4983;42.112;24.738;2023-04-26T09:22:31;2.63;;;2.23;;
9888;SDS011;4983;42.112;24.738;2023-04-26T09:24:58;2.20;;;2.00;;
9888;SDS011;4983;42.112;24.738;2023-04-26T09:27:31;2.50;;;2.03;;
9888;SDS011;4983;42.112;24.738;2023-04-26T09:30:02;2.60;;;1.93;;
9888;SDS011;4983;42.112;24.738;2023-04-26T09:32:41;5.33;;;2.33;;
9888;SDS011;4983;42.112;24.738;2023-04-26T09:35:08;2.57;;;2.07;;
9888;SDS011;4983;42.112;24.738;2023-04-26T09:37:49;2.23;;;2.03;;
9888;SDS011;4983;42.112;24.738;2023-04-26T09:40:17;3.40;;;2.07;;
9888;SDS011;4983;42.112;24.738;2023-04-26T09:42:43;3.30;;;1.97;;
9888;SDS011;4983;42.112;24.738;2023-04-26T09:45:11;2.10;;;1.90;;
9888;SDS011;4983;42.112;24.738;2023-04-26T09:47:38;2.23;;;2.03;;
9888;SDS011;4983;42.112;24.738;2023-04-26T09:50:05;2.07;;;1.87;;
9888;SDS011;4983;42.112;24.738;2023-04-26T09:52:41;3.57;;;2.20;;
9888;SDS011;4983;42.112;24.738;2023-04-26T09:55:10;2.93;;;2.10;;
9888;SDS011;4983;42.112;24.738;2023-04-26T09:57:41;2.73;;;2.20;;
9888;SDS011;4983;42.112;24.738;2023-04-26T10:00:08;2.60;;;2.40;;
9888;SDS011;4983;42.112;24.738;2023-04-26T10:02:36;2.27;;;1.97;;
9888;SDS011;4983;42.112;24.738;2023-04-26T10:05:05;2.30;;;2.10;;
9888;SDS011;4983;42.112;24.738;2023-04-26T10:07:32;2.77;;;2.00;;
9888;SDS011;4983;42.112;24.738;2023-04-26T10:09:59;2.27;;;2.03;;
9888;SDS011;4983;42.112;24.738;2023-04-26T10:12:29;2.40;;;2.03;;
9888;SDS011;4983;42.112;24.738;2023-04-26T10:14:56;2.10;;;1.73;;
9888;SDS011;4983;42.112;24.738;2023-04-26T10:17:23;1.70;;;1.60;;
9888;SDS011;4983;42.112;24.738;2023-04-26T10:19:50;1.97;;;1.77;;
9888;SDS011;4983;42.112;24.738;2023-04-26T10:22:20;12.07;;;4.47;;
9888;SDS011;4983;42.112;24.738;2023-04-26T10:24:47;5.60;;;3.37;;
9888;SDS011;4983;42.112;24.738;2023-04-26T10:27:15;3.80;;;2.57;;
9888;SDS011;4983;42.112;24.738;2023-04-26T10:32:29;2.20;;;2.00;;
9888;SDS011;4983;42.112;24.738;2023-04-26T10:35:08;2.47;;;2.27;;
9888;SDS011;4983;42.112;24.738;2023-04-26T10:37:36;2.97;;;2.67;;
9888;SDS011;4983;42.112;24.738;2023-04-26T10:40:21;7.50;;;3.83;;
9888;SDS011;4983;42.112;24.738;2023-04-26T10:42:48;5.37;;;2.87;;
9888;SDS011;4983;42.112;24.738;2023-04-26T10:45:24;3.47;;;3.10;;
9888;SDS011;4983;42.112;24.738;2023-04-26T10:47:53;3.17;;;2.73;;
9888;SDS011;4983;42.112;24.738;2023-04-26T10:53:21;2.70;;;2.50;;
9888;SDS011;4983;42.112;24.738;2023-04-26T10:55:48;7.53;;;2.70;;
9888;SDS011;4983;42.112;24.738;2023-04-26T10:58:24;6.27;;;2.77;;
9888;SDS011;4983;42.112;24.738;2023-04-26T11:03:37;4.43;;;2.47;;
9888;SDS011;4983;42.112;24.738;2023-04-26T11:06:04;4.97;;;2.70;;
9888;SDS011;4983;42.112;24.738;2023-04-26T11:08:32;2.17;;;1.97;;
9888;SDS011;4983;42.112;24.738;2023-04-26T11:11:08;2.67;;;2.47;;
9888;SDS011;4983;42.112;24.738;2023-04-26T11:13:37;2.70;;;2.50;;
9888;SDS011;4983;42.112;24.738;2023-04-26T11:16:04;2.40;;;2.20;;
9888;SDS011;4983;42.112;24.738;2023-04-26T11:18:32;3.03;;;2.10;;
9888;SDS011;4983;42.112;24.738;2023-04-26T11:21:00;3.10;;;2.37;;
9888;SDS011;4983;42.112;24.738;2023-04-26T11:23:27;3.53;;;2.57;;
9888;SDS011;4983;42.112;24.738;2023-04-26T11:25:56;2.63;;;2.20;;
9888;SDS011;4983;42.112;24.738;2023-04-26T11:28:23;4.57;;;2.47;;
9888;SDS011;4983;42.112;24.738;2023-04-26T11:30:49;4.40;;;2.70;;
9888;SDS011;4983;42.112;24.738;2023-04-26T11:33:16;3.63;;;2.60;;
9888;SDS011;4983;42.112;24.738;2023-04-26T11:35:44;2.57;;;2.37;;
9888;SDS011;4983;42.112;24.738;2023-04-26T11:38:13;6.17;;;2.83;;
9888;SDS011;4983;42.112;24.738;2023-04-26T11:40:40;3.07;;;2.77;;
9888;SDS011;4983;42.112;24.738;2023-04-26T11:43:07;3.17;;;2.20;;
9888;SDS011;4983;42.112;24.738;2023-04-26T11:45:34;2.50;;;2.30;;
9888;SDS011;4983;42.112;24.738;2023-04-26T11:48:02;3.33;;;2.27;;
9888;SDS011;4983;42.112;24.738;2023-04-26T11:50:30;2.23;;;1.70;;
9888;SDS011;4983;42.112;24.738;2023-04-26T11:52:58;3.57;;;3.17;;
9888;SDS011;4983;42.112;24.738;2023-04-26T11:55:27;2.50;;;1.87;;
9888;SDS011;4983;42.112;24.738;2023-04-26T11:57:55;2.13;;;1.93;;
9888;SDS011;4983;42.112;24.738;2023-04-26T12:00:22;3.67;;;1.87;;
9888;SDS011;4983;42.112;24.738;2023-04-26T12:02:48;3.53;;;1.90;;
9888;SDS011;4983;42.112;24.738;2023-04-26T12:05:21;2.40;;;1.97;;
9888;SDS011;4983;42.112;24.738;2023-04-26T12:07:51;1.90;;;1.67;;
9888;SDS011;4983;42.112;24.738;2023-04-26T12:10:20;2.60;;;1.70;;
9888;SDS011;4983;42.112;24.738;2023-04-26T12:12:49;4.60;;;2.40;;
9888;SDS011;4983;42.112;24.738;2023-04-26T12:15:16;1.80;;;1.70;;
9888;SDS011;4983;42.112;24.738;2023-04-26T12:17:53;4.22;;;2.55;;
9888;SDS011;4983;42.112;24.738;2023-04-26T12:20:27;2.83;;;2.27;;
9888;SDS011;4983;42.112;24.738;2023-04-26T12:23:00;1.90;;;1.70;;
9888;SDS011;4983;42.112;24.738;2023-04-26T12:25:28;3.43;;;2.63;;
9888;SDS011;4983;42.112;24.738;2023-04-26T12:27:56;3.97;;;2.37;;
9888;SDS011;4983;42.112;24.738;2023-04-26T12:30:24;2.03;;;1.70;;
9888;SDS011;4983;42.112;24.738;2023-04-26T12:32:50;2.70;;;2.27;;
9888;SDS011;4983;42.112;24.738;2023-04-26T12:35:18;1.63;;;1.43;;
9888;SDS011;4983;42.112;24.738;2023-04-26T12:37:44;2.40;;;2.20;;
9888;SDS011;4983;42.112;24.738;2023-04-26T12:40:12;2.07;;;1.50;;
9888;SDS011;4983;42.112;24.738;2023-04-26T12:42:40;1.90;;;1.80;;
9888;SDS011;4983;42.112;24.738;2023-04-26T12:45:08;2.17;;;1.97;;
9888;SDS011;4983;42.112;24.738;2023-04-26T12:47:36;2.37;;;2.10;;
9888;SDS011;4983;42.112;24.738;2023-04-26T12:50:02;2.70;;;1.73;;
9888;SDS011;4983;42.112;24.738;2023-04-26T12:52:30;1.90;;;1.77;;
9888;SDS011;4983;42.112;24.738;2023-04-26T12:54:57;3.57;;;1.87;;
9888;SDS011;4983;42.112;24.738;2023-04-26T12:57:23;1.70;;;1.60;;
9888;SDS011;4983;42.112;24.738;2023-04-26T12:59:50;2.17;;;1.97;;
9888;SDS011;4983;42.112;24.738;2023-04-26T13:02:18;1.63;;;1.50;;
9888;SDS011;4983;42.112;24.738;2023-04-26T13:04:45;1.70;;;1.60;;
9888;SDS011;4983;42.112;24.738;2023-04-26T13:07:11;2.00;;;1.80;;
9888;SDS011;4983;42.112;24.738;2023-04-26T13:09:38;2.20;;;1.90;;
9888;SDS011;4983;42.112;24.738;2023-04-26T13:12:05;2.07;;;1.83;;
9888;SDS011;4983;42.112;24.738;2023-04-26T13:14:31;4.10;;;2.10;;
9888;SDS011;4983;42.112;24.738;2023-04-26T13:16:58;2.40;;;2.10;;
9888;SDS011;4983;42.112;24.738;2023-04-26T13:19:26;2.00;;;1.80;;
9888;SDS011;4983;42.112;24.738;2023-04-26T13:21:53;2.97;;;1.63;;
9888;SDS011;4983;42.112;24.738;2023-04-26T13:24:19;4.17;;;3.50;;
9888;SDS011;4983;42.112;24.738;2023-04-26T13:26:46;2.20;;;2.00;;
9888;SDS011;4983;42.112;24.738;2023-04-26T13:29:13;11.30;;;3.20;;
9888;SDS011;4983;42.112;24.738;2023-04-26T13:31:40;1.83;;;1.70;;
9888;SDS011;4983;42.112;24.738;2023-04-26T13:34:07;5.33;;;2.70;;
9888;SDS011;4983;42.112;24.738;2023-04-26T13:36:35;3.87;;;2.40;;
9888;SDS011;4983;42.112;24.738;2023-04-26T13:39:02;2.10;;;1.90;;
9888;SDS011;4983;42.112;24.738;2023-04-26T13:41:31;2.40;;;2.20;;
9888;SDS011;4983;42.112;24.738;2023-04-26T13:43:59;2.70;;;2.10;;
9888;SDS011;4983;42.112;24.738;2023-04-26T13:46:26;1.83;;;1.70;;
9888;SDS011;4983;42.112;24.738;2023-04-26T13:48:53;1.60;;;1.50;;
9888;SDS011;4983;42.112;24.738;2023-04-26T13:51:20;3.60;;;1.90;;
9888;SDS011;4983;42.112;24.738;2023-04-26T13:53:48;2.43;;;1.97;;
9888;SDS011;4983;42.112;24.738;2023-04-26T13:56:15;2.00;;;1.80;;
9888;SDS011;4983;42.112;24.738;2023-04-26T13:58:43;2.30;;;2.10;;
9888;SDS011;4983;42.112;24.738;2023-04-26T14:01:10;3.53;;;2.10;;
9888;SDS011;4983;42.112;24.738;2023-04-26T14:03:36;1.80;;;1.60;;
9888;SDS011;4983;42.112;24.738;2023-04-26T14:06:03;5.27;;;2.43;;
9888;SDS011;4983;42.112;24.738;2023-04-26T14:08:30;3.20;;;2.27;;
9888;SDS011;4983;42.112;24.738;2023-04-26T14:10:58;2.10;;;1.90;;
9888;SDS011;4983;42.112;24.738;2023-04-26T14:13:25;4.77;;;1.77;;
9888;SDS011;4983;42.112;24.738;2023-04-26T14:15:52;1.92;;;1.73;;
9888;SDS011;4983;42.112;24.738;2023-04-26T14:18:20;1.83;;;1.73;;
9888;SDS011;4983;42.112;24.738;2023-04-26T14:20:46;2.93;;;2.50;;
9888;SDS011;4983;42.112;24.738;2023-04-26T14:23:13;2.00;;;1.80;;
9888;SDS011;4983;42.112;24.738;2023-04-26T14:25:40;3.30;;;2.30;;
9888;SDS011;4983;42.112;24.738;2023-04-26T14:28:09;4.37;;;3.27;;
9888;SDS011;4983;42.112;24.738;2023-04-26T14:30:36;2.80;;;2.50;;
9888;SDS011;4983;42.112;24.738;2023-04-26T14:33:03;2.77;;;2.47;;
9888;SDS011;4983;42.112;24.738;2023-04-26T14:35:30;2.57;;;2.37;;
9888;SDS011;4983;42.112;24.738;2023-04-26T14:37:59;5.97;;;4.07;;
9888;SDS011;4983;42.112;24.738;2023-04-26T14:40:27;3.10;;;2.27;;
9888;SDS011;4983;42.112;24.738;2023-04-26T14:42:54;2.20;;;2.00;;
9888;SDS011;4983;42.112;24.738;2023-04-26T14:45:24;2.03;;;1.83;;
9888;SDS011;4983;42.112;24.738;2023-04-26T14:47:51;2.20;;;2.00;;
9888;SDS011;4983;42.112;24.738;2023-04-26T14:50:19;2.57;;;1.80;;
9888;SDS011;4983;42.112;24.738;2023-04-26T14:52:47;3.00;;;1.80;;
9888;SDS011;4983;42.112;24.738;2023-04-26T14:55:15;1.70;;;1.50;;
9888;SDS011;4983;42.112;24.738;2023-04-26T14:57:45;1.90;;;1.70;;
9888;SDS011;4983;42.112;24.738;2023-04-26T15:00:12;1.60;;;1.50;;
9888;SDS011;4983;42.112;24.738;2023-04-26T15:02:42;1.47;;;1.37;;
9888;SDS011;4983;42.112;24.738;2023-04-26T15:05:09;1.80;;;1.40;;
9888;SDS011;4983;42.112;24.738;2023-04-26T15:07:36;1.57;;;1.47;;
9888;SDS011;4983;42.112;24.738;2023-04-26T15:10:04;1.70;;;1.60;;
9888;SDS011;4983;42.112;24.738;2023-04-26T15:12:32;1.90;;;1.50;;